Monte Anaga — EAHA — position and weather

sailwx.info

Track history (hours):
 
Tides and Currents Weather Stations Pressure Air Temp Water Temp Dewpoint Dewpoint Depression Visibility Wind Speed Wind Dir Waves Ship Positions

Monte Anaga

Last reported at 2017-Sep-20 00:00 UTC. Time now 2017-Sep-20 00:13 UTC.
Position N 36°09' W 005°26'.

Length 87 m; draft 5.3 m.

Type: Tanker. MMSI: 225419000.

Date/timePositionNaut miles runAvg speedWind from/ knotsBaromVisibWave heightAir tempDewpointWater temp
2017-Sep-20 00:00N 36°09' W 005°26'0 0.0
2017-Sep-19 21:46N 36°09' W 005°26'0 0.1
2017-Sep-19 21:30N 36°09' W 005°26'0 0.0
2017-Sep-19 20:55N 36°09' W 005°26'0 0.0
2017-Sep-19 20:01N 36°09' W 005°26'0 0.1
2017-Sep-19 19:59N 36°09' W 005°26'0 0.0
2017-Sep-19 19:30N 36°09' W 005°26'0 0.1
2017-Sep-19 19:00N 36°09' W 005°26'0 0.9
2017-Sep-19 18:29N 36°09' W 005°26'0 0.3
2017-Sep-19 18:00N 36°09' W 005°26'1 1.5
2017-Sep-19 17:30N 36°08' W 005°26'0 0.0
2017-Sep-19 17:00N 36°08' W 005°26'0 0.0
2017-Sep-19 16:30N 36°08' W 005°26'0 0.0
2017-Sep-19 16:00N 36°08' W 005°26'0 0.0
2017-Sep-19 15:20N 36°08' W 005°26'0 0.0
2017-Sep-19 15:00N 36°08' W 005°26'0 0.0
2017-Sep-19 14:30N 36°08' W 005°26'0 0.0
2017-Sep-19 14:00N 36°08' W 005°26'0 0.0
2017-Sep-19 13:30N 36°08' W 005°26'0 0.0
2017-Sep-19 12:59N 36°08' W 005°26'0 0.0
2017-Sep-19 12:02N 36°08' W 005°26'1 0.1
2017-Sep-19 04:26N 36°08' W 005°25'0 0.0
2017-Sep-19 04:00N 36°08' W 005°25'0 0.0
2017-Sep-19 03:27N 36°08' W 005°25'0 0.0
2017-Sep-19 01:34N 36°08' W 005°25'0 0.1
2017-Sep-19 01:28N 36°08' W 005°25'0 0.2
2017-Sep-19 00:57N 36°08' W 005°25'1 1.7
2017-Sep-19 00:06N 36°09' W 005°26'0 0.1
2017-Sep-19 00:00N 36°09' W 005°26'0 0.0
2017-Sep-18 23:23N 36°09' W 005°26'0 0.0
2017-Sep-18 22:45N 36°09' W 005°26'0 0.1
2017-Sep-18 22:20N 36°09' W 005°26'2 0.1
2017-Sep-18 01:59N 36°07' W 005°24'2 3.1
2017-Sep-18 01:29N 36°06' W 005°24'0 0.1
2017-Sep-18 01:00N 36°06' W 005°24'0 0.0
2017-Sep-18 00:23N 36°06' W 005°24'0 0.1
2017-Sep-18 00:00N 36°06' W 005°24'0 0.0
2017-Sep-17 23:30N 36°06' W 005°24'0 0.0
2017-Sep-17 23:00N 36°06' W 005°24'0 0.1
2017-Sep-17 22:30N 36°06' W 005°24'0 0.1
2017-Sep-17 21:55N 36°06' W 005°24'0 0.1
2017-Sep-17 21:30N 36°06' W 005°24'0 0.1
2017-Sep-17 21:00N 36°06' W 005°24'0 0.1
2017-Sep-17 20:29N 36°06' W 005°24'0 0.1
2017-Sep-17 19:55N 36°06' W 005°24'0 0.1
2017-Sep-17 19:30N 36°06' W 005°24'0 0.1
2017-Sep-17 18:58N 36°06' W 005°24'0 0.4
2017-Sep-17 18:24N 36°06' W 005°25'1 0.7
2017-Sep-17 17:41N 36°06' W 005°25'0 0.0
2017-Sep-17 17:24N 36°06' W 005°25'0 0.1
2017-Sep-17 16:34N 36°06' W 005°25'0 0.6
2017-Sep-17 16:29N 36°06' W 005°25'1 2.0
2017-Sep-17 16:00N 36°06' W 005°24'0 0.3
2017-Sep-17 15:30N 36°06' W 005°24'0 0.4
2017-Sep-17 15:00N 36°06' W 005°24'0 0.0
2017-Sep-17 14:29N 36°06' W 005°24'0 0.2
2017-Sep-17 13:59N 36°06' W 005°24'0 0.5
2017-Sep-17 13:30N 36°06' W 005°24'3 6.1
2017-Sep-17 13:00N 36°09' W 005°25'1 0.7
2017-Sep-17 11:44N 36°09' W 005°26'0 0.0
2017-Sep-17 05:30N 36°09' W 005°26'0 0.1
2017-Sep-17 04:36N 36°09' W 005°26'0 0.1
2017-Sep-17 04:30N 36°09' W 005°26'0 0.0
2017-Sep-17 01:56N 36°09' W 005°26'1 0.0
2017-Sep-16 02:51N 36°09' W 005°26'0 0.0
2017-Sep-16 02:29N 36°09' W 005°26'0 0.0
2017-Sep-16 01:59N 36°09' W 005°26'0 0.0
2017-Sep-16 01:28N 36°09' W 005°26'1 0.0
2017-Sep-15 02:12N 36°10' W 005°26'0 0.0
2017-Sep-14 21:54N 36°10' W 005°26'0 0.0
2017-Sep-14 21:30N 36°10' W 005°26'0 0.0
2017-Sep-14 19:47N 36°10' W 005°26'0 0.1
2017-Sep-14 19:30N 36°10' W 005°26'0 0.1
2017-Sep-14 18:50N 36°10' W 005°26'0 0.0
2017-Sep-14 18:26N 36°10' W 005°26'0 0.0
2017-Sep-14 17:51N 36°10' W 005°26'0 0.1
2017-Sep-14 17:30N 36°10' W 005°26'0 0.0
2017-Sep-14 17:00N 36°10' W 005°26'0 0.1
2017-Sep-14 16:18N 36°10' W 005°26'0 0.0
2017-Sep-14 15:58N 36°10' W 005°26'0 0.1
2017-Sep-14 15:30N 36°10' W 005°26'0 0.0
2017-Sep-14 11:51N 36°10' W 005°26'0 0.0
2017-Sep-14 05:29N 36°10' W 005°26'0 0.0
2017-Sep-14 03:52N 36°10' W 005°26'0 0.1
2017-Sep-14 03:23N 36°10' W 005°26'0 0.0
2017-Sep-14 02:59N 36°10' W 005°26'0 0.0
2017-Sep-14 02:28N 36°10' W 005°26'0 0.1
2017-Sep-14 02:00N 36°10' W 005°26'0 0.0
2017-Sep-14 01:28N 36°10' W 005°26'0 0.0
2017-Sep-14 01:00N 36°10' W 005°26'0 0.0
2017-Sep-14 00:30N 36°10' W 005°26'0 0.0
2017-Sep-13 23:55N 36°10' W 005°26'2 0.1
2017-Sep-13 04:55N 36°11' W 005°24'0 0.0
2017-Sep-13 04:30N 36°11' W 005°24'0 0.0
2017-Sep-13 04:00N 36°11' W 005°24'0 0.0
2017-Sep-13 03:30N 36°11' W 005°24'0 0.0
2017-Sep-13 03:00N 36°11' W 005°24'0 0.0
2017-Sep-13 02:30N 36°11' W 005°24'0 0.0
2017-Sep-13 02:00N 36°11' W 005°24'0 0.0
2017-Sep-13 01:30N 36°11' W 005°24'0 0.6
2017-Sep-13 01:00N 36°10' W 005°23'2 4.5
2017-Sep-13 00:30N 36°10' W 005°26'0 0.3
2017-Sep-13 00:00N 36°10' W 005°26'0 0.0
2017-Sep-12 23:30N 36°10' W 005°26'0 0.0
2017-Sep-12 23:00N 36°10' W 005°26'0 0.1
2017-Sep-12 22:30N 36°10' W 005°26'0 0.0
2017-Sep-12 21:28N 36°10' W 005°26'0 0.1
2017-Sep-12 21:00N 36°10' W 005°26'0 0.0
2017-Sep-12 20:30N 36°10' W 005°26'1 2.4
2017-Sep-12 20:00N 36°09' W 005°25'4 6.9
2017-Sep-12 19:30N 36°05' W 005°25'0 0.5
2017-Sep-12 18:49N 36°05' W 005°24'0 0.1
2017-Sep-12 18:30N 36°05' W 005°24'0 0.0
2017-Sep-12 18:00N 36°05' W 005°24'0 0.0
2017-Sep-12 17:30N 36°05' W 005°24'0 0.0
2017-Sep-12 17:00N 36°05' W 005°24'0 0.0
2017-Sep-12 16:30N 36°05' W 005°24'0 0.0
2017-Sep-12 16:00N 36°05' W 005°24'0 0.1
2017-Sep-12 15:30N 36°05' W 005°24'0 0.0
2017-Sep-12 15:00N 36°05' W 005°24'0 0.0
2017-Sep-12 14:30N 36°05' W 005°24'0 0.1
2017-Sep-12 14:00N 36°05' W 005°24'1 3.0
2017-Sep-12 13:30N 36°06' W 005°25'3 5.8
2017-Sep-12 12:57N 36°09' W 005°26'0 0.1
2017-Sep-12 12:30N 36°09' W 005°26'0 0.0
2017-Sep-12 12:00N 36°09' W 005°26'0 0.0
2017-Sep-12 11:29N 36°09' W 005°26'0 0.0
2017-Sep-12 10:44N 36°09' W 005°26'0 0.0
2017-Sep-12 10:29N 36°09' W 005°26'0 0.1
2017-Sep-12 10:00N 36°09' W 005°26'0 0.0
2017-Sep-12 09:27N 36°09' W 005°26'0 0.0
2017-Sep-12 09:00N 36°09' W 005°26'0 0.1
2017-Sep-12 07:53N 36°09' W 005°26'0 0.0
2017-Sep-12 07:28N 36°09' W 005°26'0 0.1
2017-Sep-12 07:00N 36°09' W 005°26'2 3.2
2017-Sep-12 06:30N 36°08' W 005°25'0 0.3
2017-Sep-12 06:00N 36°08' W 005°25'0 0.0
2017-Sep-12 05:30N 36°08' W 005°25'0 0.0
2017-Sep-12 05:00N 36°08' W 005°25'0 0.0
2017-Sep-12 04:30N 36°08' W 005°25'0 0.0
2017-Sep-12 04:00N 36°08' W 005°25'0 0.0
2017-Sep-12 03:30N 36°08' W 005°25'0 0.0
2017-Sep-12 03:00N 36°08' W 005°25'0 0.0
2017-Sep-12 02:30N 36°08' W 005°25'0 0.0
2017-Sep-12 02:00N 36°08' W 005°25'0 0.0
2017-Sep-12 01:30N 36°08' W 005°25'0 0.0
2017-Sep-12 01:00N 36°08' W 005°25'0 0.0
2017-Sep-12 00:30N 36°08' W 005°25'0 0.0
2017-Sep-12 00:00N 36°08' W 005°25'0 0.1
2017-Sep-11 23:30N 36°08' W 005°25'2 3.7
2017-Sep-11 23:00N 36°10' W 005°26'0 0.1
2017-Sep-11 22:30N 36°10' W 005°26'0 0.0
2017-Sep-11 22:00N 36°10' W 005°26'0 0.0
2017-Sep-11 21:30N 36°10' W 005°26'0 0.0
2017-Sep-11 21:00N 36°10' W 005°26'0 0.1
2017-Sep-11 20:30N 36°10' W 005°26'0 0.0
2017-Sep-11 20:00N 36°10' W 005°26'0 0.1
2017-Sep-11 19:30N 36°10' W 005°26'0 0.0
2017-Sep-11 18:59N 36°10' W 005°26'0 0.0
2017-Sep-11 18:30N 36°10' W 005°26'0 0.0
2017-Sep-11 18:00N 36°10' W 005°26'0 0.1
2017-Sep-11 17:30N 36°10' W 005°26'0 0.1
2017-Sep-11 17:00N 36°10' W 005°26'0 0.0
2017-Sep-11 16:30N 36°10' W 005°26'0 0.0
2017-Sep-11 16:00N 36°10' W 005°26'0 0.0
2017-Sep-11 15:29N 36°10' W 005°26'0 0.0
2017-Sep-11 15:00N 36°10' W 005°26'0 0.1
2017-Sep-11 14:30N 36°10' W 005°26'0 0.0
2017-Sep-11 14:00N 36°10' W 005°26'0 0.1
2017-Sep-11 13:30N 36°10' W 005°26'0 0.0
2017-Sep-11 13:00N 36°10' W 005°26'0 0.0
2017-Sep-11 12:23N 36°10' W 005°26'0 0.0
2017-Sep-11 05:54N 36°10' W 005°26'0 0.0
2017-Sep-11 04:35N 36°10' W 005°26'0 0.0
2017-Sep-11 04:30N 36°10' W 005°26'0 0.0
2017-Sep-11 02:13N 36°10' W 005°26'0 0.2
2017-Sep-11 01:52N 36°10' W 005°26'1 2.6
2017-Sep-11 01:30N 36°09' W 005°26'0 0.8
2017-Sep-11 01:00N 36°08' W 005°26'0 0.0
2017-Sep-11 00:28N 36°08' W 005°26'0 0.0
2017-Sep-11 00:00N 36°08' W 005°26'0 0.0
2017-Sep-10 23:01N 36°08' W 005°26'0 0.0
2017-Sep-10 23:00N 36°08' W 005°26'0 0.0
2017-Sep-10 22:24N 36°08' W 005°26'0 0.1
2017-Sep-10 22:00N 36°08' W 005°26'0 0.0
2017-Sep-10 21:30N 36°08' W 005°26'0 0.0
2017-Sep-10 21:00N 36°08' W 005°26'0 0.0
2017-Sep-10 20:30N 36°08' W 005°26'0 0.0
2017-Sep-10 20:00N 36°08' W 005°26'0 0.0
2017-Sep-10 19:30N 36°08' W 005°26'1 2.3
2017-Sep-10 19:00N 36°09' W 005°26'0 0.2
2017-Sep-10 18:30N 36°09' W 005°26'0 0.1
2017-Sep-10 18:00N 36°09' W 005°26'0 0.0
2017-Sep-10 17:14N 36°09' W 005°26'0 0.0
2017-Sep-10 16:52N 36°09' W 005°26'0 0.0
2017-Sep-10 13:55N 36°09' W 005°26'0 0.0
2017-Sep-10 06:39N 36°09' W 005°26'0 0.0
2017-Sep-10 06:30N 36°09' W 005°26'0 0.0
2017-Sep-10 06:00N 36°09' W 005°26'0 0.2
2017-Sep-10 05:30N 36°09' W 005°26'0 0.0
2017-Sep-10 05:00N 36°09' W 005°26'0 0.1
2017-Sep-10 04:25N 36°09' W 005°26'0 0.0
2017-Sep-10 04:00N 36°09' W 005°26'0 0.0
2017-Sep-10 03:29N 36°09' W 005°26'0 0.1
2017-Sep-10 03:00N 36°09' W 005°26'0 0.0
2017-Sep-10 02:29N 36°09' W 005°26'0 0.1
2017-Sep-10 01:56N 36°09' W 005°26'0 0.2
2017-Sep-10 01:30N 36°09' W 005°26'0 0.0
2017-Sep-10 01:00N 36°09' W 005°26'  
Track history (hours):
 
Tides and Currents Weather Stations Pressure Air Temp Water Temp Dewpoint Dewpoint Depression Visibility Wind Speed Wind Dir Waves Ship Positions

Monte Anaga

Last reported at 2017-Sep-20 00:00 UTC. Time now 2017-Sep-20 00:13 UTC.
Position N 36°09' W 005°26'.

Length 87 m; draft 5.3 m.

Type: Tanker. MMSI: 225419000.

Date/timePositionNaut miles runAvg speedWind from/ knotsBaromVisibWave heightAir tempDewpointWater temp
2017-Sep-20 00:00N 36°09' W 005°26'0 0.0
2017-Sep-19 21:46N 36°09' W 005°26'0 0.1
2017-Sep-19 21:30N 36°09' W 005°26'0 0.0
2017-Sep-19 20:55N 36°09' W 005°26'0 0.0
2017-Sep-19 20:01N 36°09' W 005°26'0 0.1
2017-Sep-19 19:59N 36°09' W 005°26'0 0.0
2017-Sep-19 19:30N 36°09' W 005°26'0 0.1
2017-Sep-19 19:00N 36°09' W 005°26'0 0.9
2017-Sep-19 18:29N 36°09' W 005°26'0 0.3
2017-Sep-19 18:00N 36°09' W 005°26'1 1.5
2017-Sep-19 17:30N 36°08' W 005°26'0 0.0
2017-Sep-19 17:00N 36°08' W 005°26'0 0.0
2017-Sep-19 16:30N 36°08' W 005°26'0 0.0
2017-Sep-19 16:00N 36°08' W 005°26'0 0.0
2017-Sep-19 15:20N 36°08' W 005°26'0 0.0
2017-Sep-19 15:00N 36°08' W 005°26'0 0.0
2017-Sep-19 14:30N 36°08' W 005°26'0 0.0
2017-Sep-19 14:00N 36°08' W 005°26'0 0.0
2017-Sep-19 13:30N 36°08' W 005°26'0 0.0
2017-Sep-19 12:59N 36°08' W 005°26'0 0.0
2017-Sep-19 12:02N 36°08' W 005°26'1 0.1
2017-Sep-19 04:26N 36°08' W 005°25'0 0.0
2017-Sep-19 04:00N 36°08' W 005°25'0 0.0
2017-Sep-19 03:27N 36°08' W 005°25'0 0.0
2017-Sep-19 01:34N 36°08' W 005°25'0 0.1
2017-Sep-19 01:28N 36°08' W 005°25'0 0.2
2017-Sep-19 00:57N 36°08' W 005°25'1 1.7
2017-Sep-19 00:06N 36°09' W 005°26'0 0.1
2017-Sep-19 00:00N 36°09' W 005°26'0 0.0
2017-Sep-18 23:23N 36°09' W 005°26'0 0.0
2017-Sep-18 22:45N 36°09' W 005°26'0 0.1
2017-Sep-18 22:20N 36°09' W 005°26'2 0.1
2017-Sep-18 01:59N 36°07' W 005°24'2 3.1
2017-Sep-18 01:29N 36°06' W 005°24'0 0.1
2017-Sep-18 01:00N 36°06' W 005°24'0 0.0
2017-Sep-18 00:23N 36°06' W 005°24'0 0.1
2017-Sep-18 00:00N 36°06' W 005°24'0 0.0
2017-Sep-17 23:30N 36°06' W 005°24'0 0.0
2017-Sep-17 23:00N 36°06' W 005°24'0 0.1
2017-Sep-17 22:30N 36°06' W 005°24'0 0.1
2017-Sep-17 21:55N 36°06' W 005°24'0 0.1
2017-Sep-17 21:30N 36°06' W 005°24'0 0.1
2017-Sep-17 21:00N 36°06' W 005°24'0 0.1
2017-Sep-17 20:29N 36°06' W 005°24'0 0.1
2017-Sep-17 19:55N 36°06' W 005°24'0 0.1
2017-Sep-17 19:30N 36°06' W 005°24'0 0.1
2017-Sep-17 18:58N 36°06' W 005°24'0 0.4
2017-Sep-17 18:24N 36°06' W 005°25'1 0.7
2017-Sep-17 17:41N 36°06' W 005°25'0 0.0
2017-Sep-17 17:24N 36°06' W 005°25'0 0.1
2017-Sep-17 16:34N 36°06' W 005°25'0 0.6
2017-Sep-17 16:29N 36°06' W 005°25'1 2.0
2017-Sep-17 16:00N 36°06' W 005°24'0 0.3
2017-Sep-17 15:30N 36°06' W 005°24'0 0.4
2017-Sep-17 15:00N 36°06' W 005°24'0 0.0
2017-Sep-17 14:29N 36°06' W 005°24'0 0.2
2017-Sep-17 13:59N 36°06' W 005°24'0 0.5
2017-Sep-17 13:30N 36°06' W 005°24'3 6.1
2017-Sep-17 13:00N 36°09' W 005°25'1 0.7
2017-Sep-17 11:44N 36°09' W 005°26'0 0.0
2017-Sep-17 05:30N 36°09' W 005°26'0 0.1
2017-Sep-17 04:36N 36°09' W 005°26'0 0.1
2017-Sep-17 04:30N 36°09' W 005°26'0 0.0
2017-Sep-17 01:56N 36°09' W 005°26'1 0.0
2017-Sep-16 02:51N 36°09' W 005°26'0 0.0
2017-Sep-16 02:29N 36°09' W 005°26'0 0.0
2017-Sep-16 01:59N 36°09' W 005°26'0 0.0
2017-Sep-16 01:28N 36°09' W 005°26'1 0.0
2017-Sep-15 02:12N 36°10' W 005°26'0 0.0
2017-Sep-14 21:54N 36°10' W 005°26'0 0.0
2017-Sep-14 21:30N 36°10' W 005°26'0 0.0
2017-Sep-14 19:47N 36°10' W 005°26'0 0.1
2017-Sep-14 19:30N 36°10' W 005°26'0 0.1
2017-Sep-14 18:50N 36°10' W 005°26'0 0.0
2017-Sep-14 18:26N 36°10' W 005°26'0 0.0
2017-Sep-14 17:51N 36°10' W 005°26'0 0.1
2017-Sep-14 17:30N 36°10' W 005°26'0 0.0
2017-Sep-14 17:00N 36°10' W 005°26'0 0.1
2017-Sep-14 16:18N 36°10' W 005°26'0 0.0
2017-Sep-14 15:58N 36°10' W 005°26'0 0.1
2017-Sep-14 15:30N 36°10' W 005°26'0 0.0
2017-Sep-14 11:51N 36°10' W 005°26'0 0.0
2017-Sep-14 05:29N 36°10' W 005°26'0 0.0
2017-Sep-14 03:52N 36°10' W 005°26'0 0.1
2017-Sep-14 03:23N 36°10' W 005°26'0 0.0
2017-Sep-14 02:59N 36°10' W 005°26'0 0.0
2017-Sep-14 02:28N 36°10' W 005°26'0 0.1
2017-Sep-14 02:00N 36°10' W 005°26'0 0.0
2017-Sep-14 01:28N 36°10' W 005°26'0 0.0
2017-Sep-14 01:00N 36°10' W 005°26'0 0.0
2017-Sep-14 00:30N 36°10' W 005°26'0 0.0
2017-Sep-13 23:55N 36°10' W 005°26'2 0.1
2017-Sep-13 04:55N 36°11' W 005°24'0 0.0
2017-Sep-13 04:30N 36°11' W 005°24'0 0.0
2017-Sep-13 04:00N 36°11' W 005°24'0 0.0
2017-Sep-13 03:30N 36°11' W 005°24'0 0.0
2017-Sep-13 03:00N 36°11' W 005°24'0 0.0
2017-Sep-13 02:30N 36°11' W 005°24'0 0.0
2017-Sep-13 02:00N 36°11' W 005°24'0 0.0
2017-Sep-13 01:30N 36°11' W 005°24'0 0.6
2017-Sep-13 01:00N 36°10' W 005°23'2 4.5
2017-Sep-13 00:30N 36°10' W 005°26'0 0.3
2017-Sep-13 00:00N 36°10' W 005°26'0 0.0
2017-Sep-12 23:30N 36°10' W 005°26'0 0.0
2017-Sep-12 23:00N 36°10' W 005°26'0 0.1
2017-Sep-12 22:30N 36°10' W 005°26'0 0.0
2017-Sep-12 21:28N 36°10' W 005°26'0 0.1
2017-Sep-12 21:00N 36°10' W 005°26'0 0.0
2017-Sep-12 20:30N 36°10' W 005°26'1 2.4
2017-Sep-12 20:00N 36°09' W 005°25'4 6.9
2017-Sep-12 19:30N 36°05' W 005°25'0 0.5
2017-Sep-12 18:49N 36°05' W 005°24'0 0.1
2017-Sep-12 18:30N 36°05' W 005°24'0 0.0
2017-Sep-12 18:00N 36°05' W 005°24'0 0.0
2017-Sep-12 17:30N 36°05' W 005°24'0 0.0
2017-Sep-12 17:00N 36°05' W 005°24'0 0.0
2017-Sep-12 16:30N 36°05' W 005°24'0 0.0
2017-Sep-12 16:00N 36°05' W 005°24'0 0.1
2017-Sep-12 15:30N 36°05' W 005°24'0 0.0
2017-Sep-12 15:00N 36°05' W 005°24'0 0.0
2017-Sep-12 14:30N 36°05' W 005°24'0 0.1
2017-Sep-12 14:00N 36°05' W 005°24'1 3.0
2017-Sep-12 13:30N 36°06' W 005°25'3 5.8
2017-Sep-12 12:57N 36°09' W 005°26'0 0.1
2017-Sep-12 12:30N 36°09' W 005°26'0 0.0
2017-Sep-12 12:00N 36°09' W 005°26'0 0.0
2017-Sep-12 11:29N 36°09' W 005°26'0 0.0
2017-Sep-12 10:44N 36°09' W 005°26'0 0.0
2017-Sep-12 10:29N 36°09' W 005°26'0 0.1
2017-Sep-12 10:00N 36°09' W 005°26'0 0.0
2017-Sep-12 09:27N 36°09' W 005°26'0 0.0
2017-Sep-12 09:00N 36°09' W 005°26'0 0.1
2017-Sep-12 07:53N 36°09' W 005°26'0 0.0
2017-Sep-12 07:28N 36°09' W 005°26'0 0.1
2017-Sep-12 07:00N 36°09' W 005°26'2 3.2
2017-Sep-12 06:30N 36°08' W 005°25'0 0.3
2017-Sep-12 06:00N 36°08' W 005°25'0 0.0
2017-Sep-12 05:30N 36°08' W 005°25'0 0.0
2017-Sep-12 05:00N 36°08' W 005°25'0 0.0
2017-Sep-12 04:30N 36°08' W 005°25'0 0.0
2017-Sep-12 04:00N 36°08' W 005°25'0 0.0
2017-Sep-12 03:30N 36°08' W 005°25'0 0.0
2017-Sep-12 03:00N 36°08' W 005°25'0 0.0
2017-Sep-12 02:30N 36°08' W 005°25'0 0.0
2017-Sep-12 02:00N 36°08' W 005°25'0 0.0
2017-Sep-12 01:30N 36°08' W 005°25'0 0.0
2017-Sep-12 01:00N 36°08' W 005°25'0 0.0
2017-Sep-12 00:30N 36°08' W 005°25'0 0.0
2017-Sep-12 00:00N 36°08' W 005°25'0 0.1
2017-Sep-11 23:30N 36°08' W 005°25'2 3.7
2017-Sep-11 23:00N 36°10' W 005°26'0 0.1
2017-Sep-11 22:30N 36°10' W 005°26'0 0.0
2017-Sep-11 22:00N 36°10' W 005°26'0 0.0
2017-Sep-11 21:30N 36°10' W 005°26'0 0.0
2017-Sep-11 21:00N 36°10' W 005°26'0 0.1
2017-Sep-11 20:30N 36°10' W 005°26'0 0.0
2017-Sep-11 20:00N 36°10' W 005°26'0 0.1
2017-Sep-11 19:30N 36°10' W 005°26'0 0.0
2017-Sep-11 18:59N 36°10' W 005°26'0 0.0
2017-Sep-11 18:30N 36°10' W 005°26'0 0.0
2017-Sep-11 18:00N 36°10' W 005°26'0 0.1
2017-Sep-11 17:30N 36°10' W 005°26'0 0.1
2017-Sep-11 17:00N 36°10' W 005°26'0 0.0
2017-Sep-11 16:30N 36°10' W 005°26'0 0.0
2017-Sep-11 16:00N 36°10' W 005°26'0 0.0
2017-Sep-11 15:29N 36°10' W 005°26'0 0.0
2017-Sep-11 15:00N 36°10' W 005°26'0 0.1
2017-Sep-11 14:30N 36°10' W 005°26'0 0.0
2017-Sep-11 14:00N 36°10' W 005°26'0 0.1
2017-Sep-11 13:30N 36°10' W 005°26'0 0.0
2017-Sep-11 13:00N 36°10' W 005°26'0 0.0
2017-Sep-11 12:23N 36°10' W 005°26'0 0.0
2017-Sep-11 05:54N 36°10' W 005°26'0 0.0
2017-Sep-11 04:35N 36°10' W 005°26'0 0.0
2017-Sep-11 04:30N 36°10' W 005°26'0 0.0
2017-Sep-11 02:13N 36°10' W 005°26'0 0.2
2017-Sep-11 01:52N 36°10' W 005°26'1 2.6
2017-Sep-11 01:30N 36°09' W 005°26'0 0.8
2017-Sep-11 01:00N 36°08' W 005°26'0 0.0
2017-Sep-11 00:28N 36°08' W 005°26'0 0.0
2017-Sep-11 00:00N 36°08' W 005°26'0 0.0
2017-Sep-10 23:01N 36°08' W 005°26'0 0.0
2017-Sep-10 23:00N 36°08' W 005°26'0 0.0
2017-Sep-10 22:24N 36°08' W 005°26'0 0.1
2017-Sep-10 22:00N 36°08' W 005°26'0 0.0
2017-Sep-10 21:30N 36°08' W 005°26'0 0.0
2017-Sep-10 21:00N 36°08' W 005°26'0 0.0
2017-Sep-10 20:30N 36°08' W 005°26'0 0.0
2017-Sep-10 20:00N 36°08' W 005°26'0 0.0
2017-Sep-10 19:30N 36°08' W 005°26'1 2.3
2017-Sep-10 19:00N 36°09' W 005°26'0 0.2
2017-Sep-10 18:30N 36°09' W 005°26'0 0.1
2017-Sep-10 18:00N 36°09' W 005°26'0 0.0
2017-Sep-10 17:14N 36°09' W 005°26'0 0.0
2017-Sep-10 16:52N 36°09' W 005°26'0 0.0
2017-Sep-10 13:55N 36°09' W 005°26'0 0.0
2017-Sep-10 06:39N 36°09' W 005°26'0 0.0
2017-Sep-10 06:30N 36°09' W 005°26'0 0.0
2017-Sep-10 06:00N 36°09' W 005°26'0 0.2
2017-Sep-10 05:30N 36°09' W 005°26'0 0.0
2017-Sep-10 05:00N 36°09' W 005°26'0 0.1
2017-Sep-10 04:25N 36°09' W 005°26'0 0.0
2017-Sep-10 04:00N 36°09' W 005°26'0 0.0
2017-Sep-10 03:29N 36°09' W 005°26'0 0.1
2017-Sep-10 03:00N 36°09' W 005°26'0 0.0
2017-Sep-10 02:29N 36°09' W 005°26'0 0.1
2017-Sep-10 01:56N 36°09' W 005°26'0 0.2
2017-Sep-10 01:30N 36°09' W 005°26'0 0.0
2017-Sep-10 01:00N 36°09' W 005°26'  

Dump ship's entire track history